Terminal Aerodrome Forecast
Issued by NWS Wilmington, NC

Home | Current Version | Previous Version | Text Only | Print | Product List | Glossary On
Versions: 1 2 3 4 5 6 7 8 9 10 11 12 13 14
000
FTUS42 KILM 221806 AAA
TAFMYR
TAF AMD
KMYR 221806Z 2218/2318 10011KT P6SM SCT035 BKN060
      TEMPO 2218/2222 SCT060
     FM230000 11009KT P6SM SCT250
     FM230800 09003KT 6SM BR SCT030
     FM231300 14010KT P6SM VCSH FEW040 SCT250
      TEMPO 2315/2318 2SM SHRA BKN035=

USA.gov is the U.S. government's official web portal to all federal, state and local government web resources and services.